Terminal Aerodrome Forecast
Issued by NWS

Home | Current Version | Previous Version | Text Only | Print | Product List | Glossary On
Versions: 1 2 3 4 5 6 7 8 9 10 11 12 13 14 15
000
FTUS45 KTFX 220500
TAFCTB
TAF
KCTB 220520Z 2206/2306 27018KT P6SM BKN100
     FM221800 30016KT P6SM BKN060
     FM230200 27011KT P6SM SCT060=

USA.gov is the U.S. government's official web portal to all federal, state and local government web resources and services.